Time;durP1;ratioP1;P1;durP2;ratioP2;P2;SDS_P1;SDS_P2;PMS_P1;PMS_P2;Temp;Humidity;BMP_temperature;BMP_pressure;BME280_temperature;BME280_humidity;BME280_pressure;Samples;Min_cycle;Max_cycle;Signal;HPM_P1;HPM_P2
2023/03/29 00:00:31;;;;;;;23.03;21.00;;;;;;;4.39;100.00;101732.66;5018617;28;20543;-48
2023/03/29 00:03:01;;;;;;;25.90;23.50;;;;;;;4.35;100.00;101732.09;5018608;28;20435;-48
2023/03/29 00:05:32;;;;;;;24.90;22.50;;;;;;;4.26;100.00;101724.13;5018778;28;21383;-48
2023/03/29 00:08:02;;;;;;;23.93;21.63;;;;;;;4.22;100.00;101725.34;5019722;28;20453;-48
2023/03/29 00:10:33;;;;;;;25.10;22.70;;;;;;;4.22;100.00;101720.91;5018875;28;20465;-46
2023/03/29 00:13:01;;;;;;;27.93;25.10;;;;;;;4.18;100.00;101714.19;5019084;28;20536;-45
2023/03/29 00:15:29;;;;;;;27.10;24.90;;;;;;;4.05;100.00;101720.69;5018798;28;20456;-46
2023/03/29 00:17:57;;;;;;;27.30;24.40;;;;;;;4.01;100.00;101719.25;5019160;28;20447;-42
2023/03/29 00:20:24;;;;;;;27.97;25.27;;;;;;;3.96;100.00;101716.19;5017863;28;20461;-42
2023/03/29 00:22:52;;;;;;;27.97;25.10;;;;;;;3.91;100.00;101717.41;5018617;28;20436;-47
2023/03/29 00:25:20;;;;;;;26.37;23.80;;;;;;;3.85;100.00;101704.72;5018902;28;20499;-44
2023/03/29 00:27:49;;;;;;;26.97;24.40;;;;;;;3.80;100.00;101701.66;5019278;28;20441;-45
2023/03/29 00:30:17;;;;;;;28.33;25.53;;;;;;;3.81;100.00;101702.47;5018193;28;20464;-42
2023/03/29 00:32:45;;;;;;;27.40;24.93;;;;;;;3.81;100.00;101697.22;5017940;28;20433;-45
2023/03/29 00:35:13;;;;;;;30.00;27.10;;;;;;;3.73;100.00;101700.47;5018995;28;20433;-42
2023/03/29 00:37:41;;;;;;;28.33;25.50;;;;;;;3.71;100.00;101698.94;5019223;28;20570;-44
2023/03/29 00:40:11;;;;;;;31.33;28.03;;;;;;;3.72;100.00;101690.91;5018503;28;20440;-45
2023/03/29 00:42:39;;;;;;;29.10;26.50;;;;;;;3.71;100.00;101685.75;5018890;28;20429;-42
2023/03/29 00:45:17;;;;;;;30.97;28.10;;;;;;;3.69;100.00;101685.06;5018423;28;20520;-47
2023/03/29 00:47:48;;;;;;;29.63;27.13;;;;;;;3.65;100.00;101687.09;5019018;28;20456;-42
2023/03/29 00:50:21;;;;;;;28.87;26.27;;;;;;;3.61;100.00;101679.59;5017897;28;20472;-47
2023/03/29 00:52:53;;;;;;;29.70;26.90;;;;;;;3.55;100.00;101675.69;5018016;28;20440;-46
2023/03/29 00:55:24;;;;;;;29.37;26.77;;;;;;;3.52;100.00;101675.09;5018347;28;20437;-47
2023/03/29 00:57:54;;;;;;;30.23;27.23;;;;;;;3.43;100.00;101679.34;5018988;28;20520;-46
2023/03/29 01:00:30;;;;;;;28.77;26.07;;;;;;;3.45;100.00;101669.50;5017869;28;20469;-45
2023/03/29 01:03:01;;;;;;;30.53;27.73;;;;;;;3.40;100.00;101660.28;5018194;28;20439;-48
2023/03/29 01:05:33;;;;;;;28.47;25.73;;;;;;;3.42;100.00;101664.47;5017899;28;20453;-42
2023/03/29 01:08:05;;;;;;;30.07;26.97;;;;;;;3.38;100.00;101656.94;5018054;28;20480;-43
2023/03/29 01:10:37;;;;;;;30.47;27.30;;;;;;;3.39;100.00;101658.59;5018064;28;20476;-43
2023/03/29 01:13:11;;;;;;;31.70;28.60;;;;;;;3.30;100.00;101657.56;5018121;28;20431;-47
2023/03/29 01:15:44;;;;;;;31.50;27.80;;;;;;;3.28;100.00;101649.81;5017980;28;20449;-45
2023/03/29 01:18:12;;;;;;;31.10;27.90;;;;;;;3.25;100.00;101644.78;5017371;28;20440;-45
2023/03/29 01:20:56;;;;;;;32.20;28.13;;;;;;;3.33;100.00;101644.97;5017094;28;20576;-44
2023/03/29 01:23:44;;;;;;;32.50;29.10;;;;;;;3.34;100.00;101638.72;5017172;28;20484;-45
2023/03/29 01:26:19;;;;;;;32.70;29.53;;;;;;;3.39;100.00;101630.44;5016975;28;20463;-44
2023/03/29 01:28:53;;;;;;;34.23;30.57;;;;;;;3.39;100.00;101630.44;5017704;28;20486;-45
2023/03/29 01:31:25;;;;;;;30.77;27.77;;;;;;;3.37;100.00;101629.75;5017418;28;20461;-43
2023/03/29 01:34:00;;;;;;;32.40;29.20;;;;;;;3.36;100.00;101625.44;5017467;28;20469;-49
2023/03/29 01:36:35;;;;;;;29.93;26.97;;;;;;;3.37;100.00;101624.47;5018039;28;20456;-45
2023/03/29 01:39:05;;;;;;;28.60;25.93;;;;;;;3.38;100.00;101620.84;5017220;28;20432;-45
2023/03/29 01:41:41;;;;;;;31.50;28.40;;;;;;;3.43;100.00;101609.94;5017190;28;20469;-45
2023/03/29 01:44:16;;;;;;;33.00;27.93;;;;;;;3.44;100.00;101603.69;5018295;28;20532;-43
2023/03/29 01:46:46;;;;;;;32.33;28.90;;;;;;;3.46;100.00;101605.25;5018241;28;20990;-48
2023/03/29 01:49:21;;;;;;;34.77;31.17;;;;;;;3.48;100.00;101605.94;5017976;28;20432;-42
2023/03/29 01:51:53;;;;;;;35.70;28.70;;;;;;;3.48;100.00;101598.03;5017807;28;20467;-42
2023/03/29 01:54:28;;;;;;;31.60;28.70;;;;;;;3.49;100.00;101593.59;5018410;28;20473;-42
2023/03/29 01:56:58;;;;;;;33.43;30.30;;;;;;;3.52;100.00;101586.28;5017896;28;20461;-45
2023/03/29 01:59:31;;;;;;;31.30;28.20;;;;;;;3.54;100.00;101583.50;5017856;28;20948;-45
2023/03/29 02:02:02;;;;;;;31.20;27.80;;;;;;;3.53;100.00;101579.16;5017507;28;20480;-42
2023/03/29 02:04:33;;;;;;;29.10;26.20;;;;;;;3.57;100.00;101576.16;5018844;28;20441;-46
2023/03/29 02:07:04;;;;;;;29.70;26.80;;;;;;;3.57;100.00;101564.75;5018918;28;20537;-42
2023/03/29 02:09:34;;;;;;;31.23;27.87;;;;;;;3.58;100.00;101558.53;5018261;28;20436;-44
2023/03/29 02:12:03;;;;;;;30.47;27.53;;;;;;;3.60;100.00;101557.44;5017565;28;20457;-44
2023/03/29 02:14:32;;;;;;;31.30;28.10;;;;;;;3.63;100.00;101545.78;5017768;28;20477;-44
2023/03/29 02:17:17;;;;;;;30.30;27.20;;;;;;;3.63;100.00;101546.63;5018180;28;20463;-46
2023/03/29 02:19:48;;;;;;;31.43;28.30;;;;;;;3.63;100.00;101536.06;5014368;28;20428;-42
2023/03/29 02:22:22;;;;;;;32.73;29.50;;;;;;;3.66;100.00;101535.81;5012467;28;20468;-43
2023/03/29 02:24:53;;;;;;;33.70;30.60;;;;;;;3.64;100.00;101535.13;5015028;28;20483;-42
2023/03/29 02:27:21;;;;;;;34.30;31.13;;;;;;;3.64;100.00;101529.00;5014786;28;20455;-45
2023/03/29 02:29:50;;;;;;;32.40;29.40;;;;;;;3.64;100.00;101529.00;5015045;28;20433;-43
2023/03/29 02:32:22;;;;;;;32.87;29.57;;;;;;;3.62;100.00;101523.00;5014331;28;20468;-44
2023/03/29 02:34:57;;;;;;;35.50;32.00;;;;;;;3.64;100.00;101521.09;5014853;28;20539;-48
2023/03/29 02:37:29;;;;;;;34.77;30.57;;;;;;;3.64;100.00;101515.81;5014923;28;20444;-45
2023/03/29 02:39:58;;;;;;;34.57;31.37;;;;;;;3.65;100.00;101520.94;5013902;28;20440;-43
2023/03/29 02:42:27;;;;;;;31.80;28.90;;;;;;;3.66;100.00;101519.97;5014638;28;20437;-45
2023/03/29 02:45:00;;;;;;;35.17;31.57;;;;;;;3.63;100.00;101509.69;5014973;28;20429;-45
2023/03/29 02:47:33;;;;;;;32.53;29.20;;;;;;;3.65;100.00;101506.91;5014698;28;20528;-43
2023/03/29 02:50:01;;;;;;;34.30;31.20;;;;;;;3.65;100.00;101507.75;5014170;28;20425;-46
2023/03/29 02:52:35;;;;;;;33.73;30.33;;;;;;;3.66;100.00;101501.50;5014177;28;20432;-46
2023/03/29 02:55:07;;;;;;;38.27;31.17;;;;;;;3.66;100.00;101496.25;5014582;28;20523;-43
2023/03/29 02:57:37;;;;;;;35.03;31.10;;;;;;;3.66;100.00;101487.47;5014592;28;20777;-44
2023/03/29 03:00:08;;;;;;;33.37;30.13;;;;;;;3.68;100.00;101488.19;5013808;28;20437;-45
2023/03/29 03:02:37;;;;;;;34.30;30.70;;;;;;;3.69;100.00;101485.41;5014108;28;20436;-47
2023/03/29 03:05:05;;;;;;;36.10;32.37;;;;;;;3.70;100.00;101480.97;5014159;28;20433;-44
2023/03/29 03:07:33;;;;;;;34.00;30.40;;;;;;;3.72;100.00;101481.69;5014566;28;20831;-46
2023/03/29 03:10:02;;;;;;;32.40;29.60;;;;;;;3.73;100.00;101476.25;5013874;28;20429;-46
2023/03/29 03:12:30;;;;;;;34.70;31.17;;;;;;;3.74;100.00;101464.75;5014087;28;20528;-45
2023/03/29 03:14:57;;;;;;;35.30;31.50;;;;;;;3.72;100.00;101469.31;5014018;28;20567;-44
2023/03/29 03:17:27;;;;;;;33.83;30.27;;;;;;;3.74;100.00;101461.25;5014205;28;20460;-45
2023/03/29 03:19:54;;;;;;;34.50;31.23;;;;;;;3.76;100.00;101456.72;5013551;28;20934;-45
2023/03/29 03:22:23;;;;;;;34.07;30.60;;;;;;;3.75;100.00;101450.59;5014054;28;20437;-44
2023/03/29 03:24:51;;;;;;;36.50;33.00;;;;;;;3.76;100.00;101446.16;5014286;28;20429;-49
2023/03/29 03:27:18;;;;;;;35.73;32.33;;;;;;;3.75;100.00;101447.94;5013897;28;20456;-45
2023/03/29 03:29:47;;;;;;;36.00;32.27;;;;;;;3.76;100.00;101449.59;5013659;28;20439;-43
2023/03/29 03:32:15;;;;;;;36.60;33.00;;;;;;;3.77;100.00;101443.38;5012627;28;20469;-49
2023/03/29 03:34:44;;;;;;;37.23;33.93;;;;;;;3.78;100.00;101445.03;5014207;28;20476;-48
2023/03/29 03:37:11;;;;;;;35.43;32.33;;;;;;;3.78;100.00;101439.78;5013907;28;20834;-44
2023/03/29 03:39:39;;;;;;;36.77;32.93;;;;;;;3.78;100.00;101447.69;5013993;28;20455;-46
2023/03/29 03:42:08;;;;;;;36.20;32.40;;;;;;;3.79;100.00;101446.69;5012895;28;20468;-44
2023/03/29 03:44:36;;;;;;;38.63;34.93;;;;;;;3.81;100.00;101439.50;5013514;28;20429;-44
2023/03/29 03:47:05;;;;;;;37.43;33.77;;;;;;;3.83;100.00;101441.97;5013636;28;20543;-48
2023/03/29 03:49:33;;;;;;;34.40;31.13;;;;;;;3.85;100.00;101437.44;5013606;28;20455;-42
2023/03/29 03:52:02;;;;;;;37.10;33.70;;;;;;;3.84;100.00;101439.22;5012730;28;20483;-43
2023/03/29 03:54:30;;;;;;;37.40;33.73;;;;;;;3.86;100.00;101434.63;5012271;28;20433;-45
2023/03/29 03:56:58;;;;;;;35.33;32.10;;;;;;;3.87;100.00;101433.69;5011790;28;20461;-49
2023/03/29 03:59:26;;;;;;;35.00;31.60;;;;;;;3.87;100.00;101435.47;5013543;28;20433;-46
2023/03/29 04:01:54;;;;;;;36.77;33.53;;;;;;;3.87;100.00;101433.69;5011841;28;20465;-48
2023/03/29 04:04:22;;;;;;;38.40;34.93;;;;;;;3.89;100.00;101430.88;5011887;28;20441;-44
2023/03/29 04:06:51;;;;;;;36.57;32.93;;;;;;;3.89;100.00;101423.81;5013012;28;20979;-48
2023/03/29 04:09:21;;;;;;;36.60;33.50;;;;;;;3.89;100.00;101428.25;5013420;28;20433;-43
2023/03/29 04:11:51;;;;;;;39.37;35.60;;;;;;;3.88;100.00;101424.78;5012404;28;20463;-44
2023/03/29 04:14:20;;;;;;;37.47;34.00;;;;;;;3.88;100.00;101422.13;5013432;28;20433;-45
2023/03/29 04:16:48;;;;;;;39.60;36.10;;;;;;;3.88;100.00;101426.59;5012823;28;20484;-44
2023/03/29 04:19:16;;;;;;;44.20;36.47;;;;;;;3.86;100.00;101421.44;5013033;28;20541;-45
2023/03/29 04:21:44;;;;;;;35.13;31.83;;;;;;;3.86;100.00;101432.00;5012145;28;20464;-44
2023/03/29 04:24:13;;;;;;;38.57;35.23;;;;;;;3.87;100.00;101417.84;5012798;28;20441;-43
2023/03/29 04:26:42;;;;;;;39.90;35.73;;;;;;;3.87;100.00;101417.84;5012900;28;20492;-43
2023/03/29 04:29:10;;;;;;;39.67;36.00;;;;;;;3.85;100.00;101406.56;5012924;28;20437;-44
2023/03/29 04:31:37;;;;;;;41.17;36.97;;;;;;;3.82;100.00;101401.56;5012149;28;20519;-44
2023/03/29 04:34:05;;;;;;;40.43;36.70;;;;;;;3.81;100.00;101402.56;5012749;28;20460;-47
2023/03/29 04:36:33;;;;;;;40.23;36.10;;;;;;;3.82;100.00;101406.03;5012413;28;20480;-44
2023/03/29 04:39:03;;;;;;;43.37;39.27;;;;;;;3.80;100.00;101395.59;5012824;28;20851;-46
2023/03/29 04:41:31;;;;;;;45.77;41.30;;;;;;;3.78;100.00;101389.66;5011858;28;20465;-48
2023/03/29 04:44:02;;;;;;;41.47;37.43;;;;;;;3.73;100.00;101385.75;5011841;28;20453;-48
2023/03/29 04:46:31;;;;;;;45.20;40.70;;;;;;;3.71;100.00;101392.94;5012742;28;20449;-44
2023/03/29 04:48:59;;;;;;;42.87;38.50;;;;;;;3.70;100.00;101381.56;5012259;28;20431;-44
2023/03/29 04:51:27;;;;;;;43.87;39.47;;;;;;;3.69;100.00;101373.81;5011870;28;20467;-46
2023/03/29 04:53:55;;;;;;;43.67;39.63;;;;;;;3.68;100.00;101378.22;5012240;28;20437;-45
2023/03/29 04:56:23;;;;;;;40.90;37.00;;;;;;;3.66;100.00;101377.56;5012256;28;20485;-44
2023/03/29 04:58:50;;;;;;;41.57;37.67;;;;;;;3.65;100.00;101364.47;5012414;28;20851;-43
2023/03/29 05:01:19;;;;;;;43.80;39.63;;;;;;;3.62;100.00;101372.66;5011743;28;20465;-44
2023/03/29 05:03:47;;;;;;;41.37;37.43;;;;;;;3.61;100.00;101366.59;5012024;28;20449;-44
2023/03/29 05:06:15;;;;;;;40.73;36.97;;;;;;;3.61;100.00;101373.66;5012260;28;20449;-43
2023/03/29 05:08:43;;;;;;;40.23;36.23;;;;;;;3.58;100.00;101369.50;5012069;28;20434;-45
2023/03/29 05:11:12;;;;;;;40.00;36.43;;;;;;;3.60;100.00;101370.19;5011693;28;20473;-45
2023/03/29 05:13:40;;;;;;;40.03;36.47;;;;;;;3.60;100.00;101370.19;5011994;28;20471;-48
2023/03/29 05:16:09;;;;;;;38.87;35.53;;;;;;;3.61;100.00;101377.13;5011809;28;20508;-48
2023/03/29 05:18:39;;;;;;;41.73;37.77;;;;;;;3.63;100.00;101374.34;5012291;28;20511;-46
2023/03/29 05:21:08;;;;;;;40.43;36.90;;;;;;;3.65;100.00;101369.75;5011488;28;20483;-46
2023/03/29 05:23:36;;;;;;;42.63;38.10;;;;;;;3.64;100.00;101373.38;5011914;28;20536;-44
2023/03/29 05:26:06;;;;;;;39.57;36.17;;;;;;;3.68;100.00;101370.31;5011901;28;20442;-44
2023/03/29 05:28:34;;;;;;;40.33;36.33;;;;;;;3.67;100.00;101371.31;5011693;28;20432;-44
2023/03/29 05:31:04;;;;;;;39.17;35.90;;;;;;;3.70;100.00;101378.13;5011565;28;20452;-45
2023/03/29 05:33:33;;;;;;;37.07;33.97;;;;;;;3.74;100.00;101374.22;5012215;28;20475;-50
2023/03/29 05:36:04;;;;;;;35.90;33.00;;;;;;;3.78;100.00;101376.47;5011949;28;20500;-47
2023/03/29 05:38:32;;;;;;;38.87;35.47;;;;;;;3.80;100.00;101376.31;5011927;28;20432;-44
2023/03/29 05:41:01;;;;;;;37.27;34.33;;;;;;;3.81;100.00;101370.06;5011329;28;20457;-45
2023/03/29 05:43:29;;;;;;;37.50;33.93;;;;;;;3.81;100.00;101368.25;5011523;28;20457;-46
2023/03/29 05:45:57;;;;;;;38.73;35.67;;;;;;;3.85;100.00;101350.34;5011858;28;20453;-47
2023/03/29 05:48:26;;;;;;;36.97;33.97;;;;;;;3.87;100.00;101351.88;5011976;28;20507;-48
2023/03/29 05:50:56;;;;;;;36.80;33.83;;;;;;;3.89;100.00;101355.22;5011367;28;20471;-47
2023/03/29 05:53:26;;;;;;;36.10;32.90;;;;;;;3.92;100.00;101354.09;5011620;28;20459;-45
2023/03/29 05:55:54;;;;;;;37.27;33.97;;;;;;;3.95;100.00;101345.91;5015050;28;20473;-46
2023/03/29 05:58:22;;;;;;;35.70;32.47;;;;;;;3.99;100.00;101349.94;5015867;28;20452;-47
2023/03/29 06:00:50;;;;;;;36.47;33.47;;;;;;;4.04;100.00;101352.16;5015226;28;21032;-44
2023/03/29 06:03:22;;;;;;;35.77;33.10;;;;;;;4.09;100.00;101349.94;5015305;28;20445;-48
2023/03/29 06:05:57;;;;;;;35.53;32.27;;;;;;;4.11;100.00;101346.19;5015537;28;20457;-46
2023/03/29 06:08:27;;;;;;;33.20;30.80;;;;;;;4.14;100.00;101340.63;5015390;28;20833;-44
2023/03/29 06:10:59;;;;;;;32.97;30.77;;;;;;;4.20;100.00;101344.50;5015104;28;20448;-45
2023/03/29 06:13:32;;;;;;;35.07;31.97;;;;;;;4.24;100.00;101338.78;5015390;28;20428;-48
2023/03/29 06:16:00;;;;;;;34.40;30.97;;;;;;;4.31;100.00;101345.19;5015213;28;20473;-47
2023/03/29 06:18:28;;;;;;;33.20;30.80;;;;;;;4.38;100.00;101348.09;5015255;28;20799;-44
2023/03/29 06:20:56;;;;;;;33.77;30.93;;;;;;;4.50;100.00;101351.41;5012135;28;20480;-45
2023/03/29 06:23:25;;;;;;;34.33;31.30;;;;;;;4.57;100.00;101347.22;5014843;28;20536;-46
2023/03/29 06:25:54;;;;;;;31.57;29.27;;;;;;;4.71;100.00;101355.53;5015187;28;20496;-45
2023/03/29 06:28:22;;;;;;;32.00;29.40;;;;;;;4.81;100.00;101347.53;5015189;28;20428;-44
2023/03/29 06:30:52;;;;;;;34.20;31.20;;;;;;;4.91;100.00;101351.81;5014640;28;20465;-44
2023/03/29 06:33:20;;;;;;;32.07;29.57;;;;;;;5.08;100.00;101349.41;5014780;28;20508;-51
2023/03/29 06:35:49;;;;;;;32.97;30.33;;;;;;;5.25;100.00;101353.91;5014729;28;20457;-47
2023/03/29 06:38:18;;;;;;;32.77;29.90;;;;;;;5.38;100.00;101357.84;5014801;28;20433;-46
2023/03/29 06:40:47;;;;;;;30.57;28.37;;;;;;;5.47;100.00;101361.41;5014430;28;20507;-44
2023/03/29 06:43:15;;;;;;;31.10;29.07;;;;;;;5.57;100.00;101364.84;5014637;28;20429;-45
2023/03/29 06:45:43;;;;;;;32.00;29.87;;;;;;;5.66;100.00;101363.13;5014623;28;20815;-44
2023/03/29 06:48:11;;;;;;;32.37;29.57;;;;;;;5.74;100.00;101363.19;5014895;28;20499;-46
2023/03/29 06:50:38;;;;;;;31.47;29.33;;;;;;;5.76;100.00;101359.44;5014546;28;20461;-44
2023/03/29 06:53:06;;;;;;;29.50;27.60;;;;;;;5.73;100.00;101362.38;5014406;28;20433;-50
2023/03/29 06:55:34;;;;;;;30.17;27.90;;;;;;;5.77;100.00;101362.88;5014554;28;20484;-48
2023/03/29 06:58:04;;;;;;;29.10;27.30;;;;;;;5.80;100.00;101368.72;5014646;28;20472;-48
2023/03/29 07:00:34;;;;;;;28.73;26.83;;;;;;;5.83;100.00;101360.47;5014250;28;20812;-47
2023/03/29 07:03:05;;;;;;;28.53;26.63;;;;;;;5.84;100.00;101361.31;5014439;28;20436;-46
2023/03/29 07:05:36;;;;;;;30.00;27.47;;;;;;;5.89;100.00;101357.25;5013938;28;20460;-49
2023/03/29 07:08:12;;;;;;;28.00;26.00;;;;;;;5.92;100.00;101348.19;5014022;28;20425;-47
2023/03/29 07:10:42;;;;;;;28.73;26.70;;;;;;;5.92;100.00;101353.47;5013778;28;20873;-44
2023/03/29 07:13:12;;;;;;;29.30;27.40;;;;;;;5.93;100.00;101353.34;5014156;28;20440;-44
2023/03/29 07:15:40;;;;;;;29.20;27.40;;;;;;;5.98;100.00;101356.34;5014330;28;20479;-44
2023/03/29 07:18:09;;;;;;;28.30;26.60;;;;;;;6.02;100.00;101357.72;5014087;28;20487;-45
2023/03/29 07:20:37;;;;;;;28.57;26.87;;;;;;;6.07;100.00;101366.03;5011025;28;20461;-44
2023/03/29 07:23:05;;;;;;;28.50;26.67;;;;;;;6.15;100.00;101359.16;5013721;28;20429;-48
2023/03/29 07:25:33;;;;;;;29.57;27.73;;;;;;;6.18;100.00;101361.50;5013988;28;20457;-46
2023/03/29 07:28:01;;;;;;;29.93;27.63;;;;;;;6.21;100.00;101351.44;5014059;28;20433;-43
2023/03/29 07:30:31;;;;;;;29.03;27.27;;;;;;;6.24;100.00;101350.28;5013508;28;20831;-46
2023/03/29 07:32:59;;;;;;;29.53;27.60;;;;;;;6.27;100.00;101358.75;5013838;28;20430;-48
2023/03/29 07:35:28;;;;;;;28.67;26.97;;;;;;;6.38;100.00;101358.50;5013802;28;20544;-44
2023/03/29 07:37:56;;;;;;;27.60;25.90;;;;;;;6.42;100.00;101361.69;5013449;28;20473;-45
2023/03/29 07:40:24;;;;;;;29.20;27.07;;;;;;;6.51;100.00;101358.13;5013264;28;20993;-47
2023/03/29 07:42:54;;;;;;;30.30;28.10;;;;;;;6.54;100.00;101348.00;5013317;28;21140;-45
2023/03/29 07:45:23;;;;;;;29.90;27.90;;;;;;;6.68;100.00;101347.47;5013550;28;20464;-48
2023/03/29 07:47:56;;;;;;;29.53;27.60;;;;;;;6.85;100.00;101348.38;5013737;28;20429;-44
2023/03/29 07:50:25;;;;;;;29.03;27.27;;;;;;;6.91;100.00;101350.38;5013092;28;20444;-49
2023/03/29 07:52:52;;;;;;;30.50;28.50;;;;;;;7.03;100.00;101350.94;5013458;28;20441;-46
2023/03/29 07:55:21;;;;;;;30.60;28.57;;;;;;;7.05;100.00;101354.25;5013586;28;20520;-44
2023/03/29 07:57:50;;;;;;;30.67;28.50;;;;;;;7.10;100.00;101349.31;5013469;28;21018;-44
2023/03/29 08:00:18;;;;;;;27.20;25.70;;;;;;;7.09;100.00;101356.44;5013116;28;20456;-47
2023/03/29 08:02:49;;;;;;;28.93;27.27;;;;;;;7.09;100.00;101356.44;5013098;28;20433;-48
2023/03/29 08:05:21;;;;;;;29.30;27.10;;;;;;;6.98;100.00;101359.38;5013225;28;20520;-49
2023/03/29 08:08:08;;;;;;;29.60;27.60;;;;;;;6.93;100.00;101360.84;5013258;28;21002;-47
2023/03/29 08:10:36;;;;;;;30.13;27.83;;;;;;;6.98;100.00;101353.25;5012784;28;20465;-46
2023/03/29 08:13:06;;;;;;;28.03;26.23;;;;;;;6.97;100.00;101355.06;5012834;28;20433;-44
2023/03/29 08:15:34;;;;;;;27.60;25.70;;;;;;;7.04;100.00;101347.31;5013139;28;20496;-45
2023/03/29 08:18:01;;;;;;;28.67;26.63;;;;;;;7.01;100.00;101350.28;5013146;28;20476;-50
2023/03/29 08:20:31;;;;;;;27.40;25.70;;;;;;;7.00;100.00;101343.31;5012623;28;20991;-47
2023/03/29 08:22:58;;;;;;;29.63;27.47;;;;;;;7.08;100.00;101332.72;5012672;28;20517;-46
2023/03/29 08:25:26;;;;;;;28.13;26.40;;;;;;;7.13;100.00;101333.94;5012797;28;20503;-47
2023/03/29 08:27:54;;;;;;;28.93;26.53;;;;;;;7.24;100.00;101332.78;5012930;28;20457;-44
2023/03/29 08:30:22;;;;;;;30.20;27.53;;;;;;;7.32;100.00;101337.31;5012495;28;20504;-45
2023/03/29 08:32:51;;;;;;;30.40;28.27;;;;;;;7.48;100.00;101334.69;5012744;28;20785;-43
2023/03/29 08:35:22;;;;;;;30.40;27.77;;;;;;;7.59;100.00;101331.72;5012815;28;20524;-46
2023/03/29 08:37:52;;;;;;;30.00;27.80;;;;;;;7.70;100.00;101323.47;5012689;28;20495;-43
2023/03/29 08:40:22;;;;;;;29.83;27.87;;;;;;;7.75;100.00;101327.28;5012093;28;20453;-48
2023/03/29 08:43:09;;;;;;;29.33;27.07;;;;;;;7.74;100.00;101322.97;5012579;28;20429;-47
2023/03/29 08:45:46;;;;;;;29.73;27.93;;;;;;;7.82;100.00;101328.28;5012670;28;20819;-46
2023/03/29 08:48:25;;;;;;;31.40;29.00;;;;;;;7.87;100.00;101325.13;5012538;28;20512;-46
2023/03/29 08:50:57;;;;;;;31.30;29.20;;;;;;;7.83;100.00;101315.84;5011854;28;20989;-44
2023/03/29 08:53:31;;;;;;;30.53;28.43;;;;;;;7.77;100.00;101324.44;5012197;28;20433;-46
2023/03/29 08:56:04;;;;;;;29.80;27.37;;;;;;;7.63;100.00;101325.94;5012430;28;20523;-45
2023/03/29 08:58:34;;;;;;;30.57;28.40;;;;;;;7.62;100.00;101326.91;5012302;28;20473;-45
2023/03/29 09:01:07;;;;;;;32.60;30.27;;;;;;;7.46;100.00;101318.94;5011936;28;21013;-45
2023/03/29 09:03:40;;;;;;;31.53;29.27;;;;;;;7.36;100.00;101328.84;5012316;28;20491;-47
2023/03/29 09:06:11;;;;;;;30.10;27.60;;;;;;;7.35;100.00;101329.03;5012148;28;20998;-47
2023/03/29 09:08:43;;;;;;;31.20;29.00;;;;;;;7.31;100.00;101327.69;5012365;28;20987;-48
2023/03/29 09:11:26;;;;;;;31.10;28.90;;;;;;;7.23;100.00;101334.59;5011618;28;20461;-44
2023/03/29 09:14:04;;;;;;;34.23;31.27;;;;;;;7.13;100.00;101328.63;5012896;28;20464;-44
2023/03/29 09:16:37;;;;;;;31.83;29.23;;;;;;;7.03;100.00;101335.88;5012257;28;20457;-44
2023/03/29 09:19:16;;;;;;;32.87;30.27;;;;;;;6.97;100.00;101331.19;5012150;28;20473;-47
2023/03/29 09:21:49;;;;;;;33.03;30.50;;;;;;;6.90;100.00;101335.47;5011455;28;20476;-47
2023/03/29 09:24:36;;;;;;;32.60;30.20;;;;;;;6.90;100.00;101330.16;5011966;28;20437;-44
2023/03/29 09:27:09;;;;;;;33.93;31.30;;;;;;;6.81;100.00;101322.34;5012264;28;20461;-44
2023/03/29 09:29:50;;;;;;;33.00;30.30;;;;;;;6.81;100.00;101325.81;5011666;28;20518;-46
2023/03/29 09:32:22;;;;;;;35.03;32.03;;;;;;;6.84;100.00;101332.63;5011352;28;20468;-49
2023/03/29 09:34:57;;;;;;;34.03;31.00;;;;;;;6.83;100.00;101321.19;5012152;28;20532;-45
2023/03/29 09:37:32;;;;;;;35.50;32.03;;;;;;;6.89;100.00;101327.69;5011943;28;20790;-44
2023/03/29 09:40:06;;;;;;;37.23;34.13;;;;;;;6.93;100.00;101316.59;5011656;28;20433;-44
2023/03/29 09:42:34;;;;;;;33.90;31.20;;;;;;;6.88;100.00;101313.59;5011749;28;20823;-49
2023/03/29 09:45:07;;;;;;;36.30;33.50;;;;;;;7.03;100.00;101317.31;5011628;28;20946;-46
2023/03/29 09:47:39;;;;;;;35.50;32.60;;;;;;;7.06;100.00;101316.16;5012047;28;20516;-44
2023/03/29 09:50:14;;;;;;;37.23;34.13;;;;;;;7.13;100.00;101310.06;5011556;28;20458;-48
2023/03/29 09:52:57;;;;;;;33.70;31.03;;;;;;;7.09;100.00;101311.34;5011571;28;20429;-45
2023/03/29 09:55:29;;;;;;;34.50;31.47;;;;;;;7.14;100.00;101309.03;5011655;28;20453;-44
2023/03/29 09:58:00;;;;;;;33.67;31.00;;;;;;;7.20;100.00;101299.63;5011881;28;20487;-47
2023/03/29 10:00:28;;;;;;;33.93;31.30;;;;;;;7.21;100.00;101301.28;5011459;28;20819;-45
2023/03/29 10:02:58;;;;;;;36.10;32.93;;;;;;;7.22;100.00;101308.25;5011343;28;20460;-51
2023/03/29 10:05:30;;;;;;;36.43;33.20;;;;;;;7.23;100.00;101301.94;5011318;28;20464;-44
2023/03/29 10:08:00;;;;;;;33.17;30.67;;;;;;;7.27;100.00;101303.28;5011461;28;20814;-47
2023/03/29 10:10:33;;;;;;;34.57;31.77;;;;;;;7.27;100.00;101305.94;5011046;28;20994;-48
2023/03/29 10:13:04;;;;;;;36.33;32.80;;;;;;;7.25;100.00;101302.63;5011208;28;20528;-47
2023/03/29 10:15:32;;;;;;;41.10;34.23;;;;;;;7.27;100.00;101300.63;5011513;28;20543;-47
2023/03/29 10:18:02;;;;;;;36.47;33.13;;;;;;;7.24;100.00;101291.19;5011351;28;20432;-50
2023/03/29 10:20:30;;;;;;;35.87;32.90;;;;;;;7.23;100.00;101291.34;5011303;28;20480;-46
2023/03/29 10:22:59;;;;;;;35.43;32.53;;;;;;;7.27;100.00;101299.81;5011378;28;20433;-46
2023/03/29 10:25:31;;;;;;;36.57;33.37;;;;;;;7.28;100.00;101298.81;5011287;28;20453;-48
2023/03/29 10:28:04;;;;;;;35.77;32.77;;;;;;;7.22;100.00;101295.00;5011361;28;20464;-44
2023/03/29 10:30:36;;;;;;;36.77;33.60;;;;;;;7.17;100.00;101300.78;5010837;28;21000;-46
2023/03/29 10:33:04;;;;;;;40.60;34.43;;;;;;;7.27;100.00;101311.25;5011096;28;20429;-47
2023/03/29 10:35:37;;;;;;;39.23;35.80;;;;;;;7.30;100.00;101307.44;5011555;28;20460;-47
2023/03/29 10:38:11;;;;;;;38.27;35.17;;;;;;;7.39;100.00;101298.50;5011554;28;20429;-48
2023/03/29 10:40:43;;;;;;;36.27;33.30;;;;;;;7.43;100.00;101292.72;5011009;28;20468;-50
2023/03/29 10:43:14;;;;;;;37.37;34.30;;;;;;;7.54;100.00;101297.72;5014490;28;20862;-48
2023/03/29 10:45:43;;;;;;;37.23;33.73;;;;;;;7.58;100.00;101299.06;5014963;28;20483;-47
2023/03/29 10:48:13;;;;;;;36.57;33.67;;;;;;;7.53;100.00;101305.81;5014744;28;20440;-44
2023/03/29 10:50:41;;;;;;;37.30;33.87;;;;;;;7.60;100.00;101296.22;5014475;28;20467;-44
2023/03/29 10:53:18;;;;;;;37.37;34.37;;;;;;;7.73;100.00;101285.97;5014582;28;20846;-45
2023/03/29 10:55:56;;;;;;;40.37;36.77;;;;;;;7.84;100.00;101293.59;5014383;28;20448;-46
2023/03/29 10:58:36;;;;;;;39.93;36.67;;;;;;;7.88;100.00;101294.09;5014835;28;20440;-44
2023/03/29 11:01:05;;;;;;;39.17;35.83;;;;;;;7.88;100.00;101294.94;5014404;28;20827;-45
2023/03/29 11:03:46;;;;;;;40.10;36.70;;;;;;;7.88;100.00;101294.94;5014226;28;20445;-44
2023/03/29 11:06:23;;;;;;;36.90;33.53;;;;;;;7.92;100.00;101290.09;5014306;28;20456;-46
2023/03/29 11:08:58;;;;;;;36.20;33.20;;;;;;;7.98;100.00;101290.28;5014422;28;20428;-46
2023/03/29 11:11:46;;;;;;;36.90;34.00;;;;;;;8.13;100.00;101280.66;5013870;28;20468;-44
2023/03/29 11:14:25;;;;;;;39.00;35.70;;;;;;;8.22;100.00;101265.53;5014334;28;21157;-47
2023/03/29 11:17:06;;;;;;;38.37;35.10;;;;;;;8.41;100.00;101264.34;5014635;28;20456;-48
2023/03/29 11:19:47;;;;;;;39.47;36.13;;;;;;;8.52;100.00;101266.66;5014120;28;20473;-47
2023/03/29 11:22:22;;;;;;;38.23;35.20;;;;;;;8.59;100.00;101262.31;5013288;28;20839;-46
2023/03/29 11:25:01;;;;;;;40.53;36.80;;;;;;;8.57;100.00;101253.69;5014003;28;20435;-44